Project City, California
Current Conditions -  °F | °C
As of 9:04 AM on Saturday 20 Dec 2014 (Local Time) from KRDD Reporting Station
Light Rain Light Rain  
Wind Chill: 52°   Ceiling: 400
Heat Index: 52°   Visibility: 2mi
Dew Point: 51°   Wind: 16mph
Humidity: 97%   Direction: 180°S
Pressure: 30.13"   Gusts: NA
Location:  40.6814°N, 122.35°W
Report Text: KRDD 201704Z 18014KT 2SM -RA BR OVC004 11/11 A3013 RMK AO2 P0000 T01110106
Loading
Personal Weather Stations






























Interactive Weather Map New forecast layout! Learn more

10-Day Weather Forecast

Advertisements
Track Severe Weather on mobile